LYBEBKPR

Guest
Details From LYBE - Belgrade
To BKPR - Pristina Intl
Flight Number -
Tags generated
Created
Modified
Stats Distance 139 nm / 257 km
Max Altitude 13,700 ft / 4,176 m
Waypoints 4
Social Downloads 2
Likes 0
Share VATSIM

Download

Looking for another format? Having issues loading an existing format? Contact us
Advertisement - Login to hide

Notes

Basic altitude profile: - Ascent Rate: 2500ft/min - Ascent Speed: 250kts - Cruise Altitude: 35000ft - Cruise Speed: 420kts - Descent Rate: 1500ft/min - Descent Speed: 250kts Options: - Use NATs: yes - Use PACOTS: yes - Use low airways: yes - Use high airways: yes

Route

LYBE ORVAN M749 NEVAK BKPR

ID Type Via Altitude Latitude Longitude Leg Dist Tot Dist Heading (true) Name
O LYBE APT - 0 ft / 0 m 44.81843˚ 20.30921˚ - 0 nm - Belgrade
ORVAN FIX - 7,400 ft / 2,256 m 44.49189˚ 20.48333˚ 20 nm 20 nm 159° / 159° -
NEVAK FIX M749 (AWY-LO) 13,700 ft / 4,176 m 44.21206˚ 20.60267˚ 17 nm 38 nm 163° / 163° -
O BKPR APT - 0 ft / 0 m 42.57453˚ 21.03568˚ 100 nm 138 nm 169° / 169° Pristina Intl

Altitude Profile

Advertisement - Login to hide

LYBE

Details ICAO LYBE (BEG)
Name Belgrade
Region Serbia and Montenegro
Timezone Europe/Belgrade (UTC+1.0)
Stats Elevation 335 ft / 102 m (AMSL)
Location 44.818429° 20.309211°
Runways 1
Magnetic Variation 4.671° E

METAR

LYBE 130930Z 33009KT 9000 -DZ OVC009 04/03 Q1020 NOSIG

Decode

TAF

TAF LYBE 130500Z 1306/1406 31010KT 9999 BKN013 BKN030 TX05/1306Z TN02/1405Z TEMPO 1306/1309 BKN005 BKN027 TEMPO 1311/1320 4000 -RA BR BKN008 BKN027 BECMG 1322/1324 20006KT 3000 BR SCT015 BKN027

Decode

Departure Runways

ID Width Length Bearing (true) Bearing (mag) Surface Threshold Offset Overrun Length
12 148 ft / 45 m 11,138 ft / 3,395 m 122.00° 117.33° Asphalt 1,000 ft / 305 m 0 ft / 0 m
30 148 ft / 45 m 11,138 ft / 3,395 m 302.03° 297.36° Asphalt 1,312 ft / 400 m 0 ft / 0 m

BKPR

Details ICAO BKPR
Name Pristina Intl
Region Kosovo
Timezone Europe/Belgrade (UTC+1.0)
Stats Elevation 1,789 ft / 545 m (AMSL)
Location 42.574531° 21.035685°
Runways 1
Magnetic Variation 4.551° E

METAR

BKPR 130930Z 15006KT 120V190 9999 SCT050 BKN120 10/03 Q1018 NOSIG RMK 17010095

Decode

TAF

TAF BKPR 130530Z 1306/1406 19010KT 9999 SCT035 BKN080

Decode

Destination Runways

ID Width Length Bearing (true) Bearing (mag) Surface Threshold Offset Overrun Length
17 148 ft / 45 m 8,175 ft / 2,492 m 175.71° 171.16° Asphalt 0 ft / 0 m 98 ft / 30 m
35 148 ft / 45 m 8,175 ft / 2,492 m 355.71° 351.16° Asphalt 0 ft / 0 m 98 ft / 30 m

Approach Navaids

Runway Type Ident Frequency Range Bearing (true) Bearing (mag) Slope Elevation
17 Localiser PRS 110.10 MHz 18 nm / 33 km 175.69° 171.14° - 1,794 ft / 547 m (AMSL)
17 Glidescope PRS 110.10 MHz 10 nm / 19 km 175.71° 171.16° 3.00° 1,794 ft / 547 m (AMSL)
17 DME PRS 110.10 MHz 18 nm / 33 km - - - 1,794 ft / 547 m (AMSL)